Time;durP1;ratioP1;P1;durP2;ratioP2;P2;SDS_P1;SDS_P2;PMS_P1;PMS_P2;Temp;Humidity;BMP_temperature;BMP_pressure;BME280_temperature;BME280_humidity;BME280_pressure;Samples;Min_cycle;Max_cycle;Signal;HPM_P1;HPM_P2
2022/11/11 00:01:15;;;;;;;16.30;13.32;;;;;;;;;;4992784;28;20537;-74
2022/11/11 00:03:59;;;;;;;;;;;;;;;;;;4989977;28;20081;-74
2022/11/11 00:06:43;;;;;;;14.50;11.70;;;;;;;;;;4988979;28;19929;-74
2022/11/11 00:09:28;;;;;;;14.23;12.70;;;;;;;;;;4995082;28;20061;-74
2022/11/11 00:12:12;;;;;;;14.80;13.18;;;;;;;;;;4995893;28;20038;-74
2022/11/11 00:14:57;;;;;;;15.18;12.77;;;;;;;;;;4988896;28;20077;-74
2022/11/11 00:26:49;;;;;;;13.93;11.63;;;;;;;;;;4991746;28;20040;-75
2022/11/11 00:29:34;;;;;;;14.50;11.38;;;;;;;;;;4992394;28;20029;-75
2022/11/11 00:32:29;;;;;;;16.67;12.32;;;;;;;;;;4993081;28;20062;-74
2022/11/11 00:41:21;;;;;;;14.73;12.65;;;;;;;;;;4996494;28;20038;-74
2022/11/11 00:44:05;;;;;;;16.48;12.13;;;;;;;;;;4990351;28;20035;-74
2022/11/11 00:52:55;;;;;;;12.35;11.07;;;;;;;;;;4989620;28;20037;-74
2022/11/11 00:55:41;;;;;;;11.98;10.77;;;;;;;;;;4996384;28;20048;-74
2022/11/11 00:58:26;;;;;;;14.75;11.32;;;;;;;;;;4992796;28;20044;-74
2022/11/11 01:01:10;;;;;;;12.23;11.00;;;;;;;;;;4990724;28;20044;-73
2022/11/11 01:03:55;;;;;;;15.38;11.07;;;;;;;;;;4991391;28;20523;-74
2022/11/11 01:06:39;;;;;;;11.80;10.20;;;;;;;;;;4991419;28;20615;-74
2022/11/11 01:09:24;;;;;;;12.50;9.82;;;;;;;;;;4996491;28;20031;-74
2022/11/11 01:12:08;;;;;;;11.98;10.55;;;;;;;;;;4988593;28;20030;-74
2022/11/11 01:14:52;;;;;;;11.75;10.65;;;;;;;;;;4992958;28;20084;-74
2022/11/11 01:17:37;;;;;;;11.57;10.43;;;;;;;;;;4985468;28;20060;-74
2022/11/11 01:20:21;;;;;;;16.10;10.80;;;;;;;;;;4987374;28;20119;-73
2022/11/11 01:23:06;;;;;;;16.35;12.10;;;;;;;;;;4989765;28;20097;-73
2022/11/11 01:25:51;;;;;;;11.93;10.05;;;;;;;;;;4986253;28;20046;-74
2022/11/11 01:28:35;;;;;;;17.33;9.43;;;;;;;;;;4992333;28;20104;-74
2022/11/11 01:31:22;;;;;;;11.57;10.48;;;;;;;;;;4997473;28;20564;-74
2022/11/11 01:34:06;;;;;;;10.43;9.52;;;;;;;;;;4993477;28;20405;-74
2022/11/11 01:36:50;;;;;;;10.18;8.60;;;;;;;;;;4985109;28;20041;-74
2022/11/11 01:39:34;;;;;;;9.77;8.98;;;;;;;;;;4990246;28;20031;-74
2022/11/11 01:42:19;;;;;;;10.85;9.93;;;;;;;;;;4989860;28;20580;-74
2022/11/11 01:45:59;;;;;;;11.60;10.40;;;;;;;;;;4987817;28;20147;-74
2022/11/11 01:52:00;;;;;;;11.52;10.43;;;;;;;;;;4977767;28;20101;-74
2022/11/11 01:54:53;;;;;;;11.50;10.27;;;;;;;;;;4977627;28;20037;-74
2022/11/11 01:57:46;;;;;;;11.73;9.95;;;;;;;;;;4971394;28;20046;-74
2022/11/11 02:00:30;;;;;;;10.77;9.68;;;;;;;;;;4973623;28;20045;-74
2022/11/11 02:03:16;;;;;;;10.15;9.35;;;;;;;;;;4980080;28;20054;-75
2022/11/11 02:06:00;;;;;;;11.07;9.98;;;;;;;;;;4976941;28;20069;-74
2022/11/11 02:08:44;;;;;;;11.10;10.00;;;;;;;;;;4977824;28;20525;-74
2022/11/11 02:14:41;;;;;;;46.88;11.63;;;;;;;;;;4972777;28;20049;-72
2022/11/11 02:17:28;;;;;;;122.32;13.90;;;;;;;;;;4975854;28;20454;-74
2022/11/11 02:20:16;;;;;;;15.90;10.23;;;;;;;;;;4982207;28;20041;-75
2022/11/11 02:23:10;;;;;;;76.30;11.90;;;;;;;;;;4989733;28;20061;-74
2022/11/11 02:25:55;;;;;;;17.42;9.98;;;;;;;;;;4984064;28;20137;-74
2022/11/11 02:28:41;;;;;;;10.65;9.65;;;;;;;;;;4991269;28;20400;-74
2022/11/11 02:31:28;;;;;;;11.25;10.07;;;;;;;;;;4993226;28;20727;-74
2022/11/11 02:34:12;;;;;;;18.20;9.18;;;;;;;;;;4987139;28;20121;-74
2022/11/11 02:36:57;;;;;;;16.30;10.57;;;;;;;;;;4991099;28;20033;-74
2022/11/11 02:39:44;;;;;;;12.68;9.73;;;;;;;;;;4995657;28;20522;-74
2022/11/11 02:42:29;;;;;;;10.57;9.57;;;;;;;;;;4986163;28;20058;-74
2022/11/11 02:45:13;;;;;;;26.40;10.52;;;;;;;;;;4991097;28;20058;-74
2022/11/11 02:47:57;;;;;;;16.65;10.20;;;;;;;;;;4994637;28;20112;-74
2022/11/11 02:50:42;;;;;;;18.52;10.27;;;;;;;;;;4986513;28;20732;-74
2022/11/11 02:53:26;;;;;;;11.00;9.90;;;;;;;;;;4991564;28;20041;-75
2022/11/11 02:56:10;;;;;;;15.95;9.70;;;;;;;;;;4993592;28;20045;-74
2022/11/11 02:58:54;;;;;;;10.40;9.40;;;;;;;;;;4985925;28;20034;-74
2022/11/11 03:01:39;;;;;;;12.38;11.15;;;;;;;;;;4991192;28;20100;-74
2022/11/11 03:04:23;;;;;;;10.05;9.20;;;;;;;;;;4996933;28;20038;-74
2022/11/11 03:07:07;;;;;;;9.48;8.73;;;;;;;;;;4986449;28;20416;-74
2022/11/11 03:09:51;;;;;;;8.68;7.97;;;;;;;;;;4990519;28;20034;-74
2022/11/11 03:12:37;;;;;;;11.20;10.18;;;;;;;;;;4993288;28;20053;-74
2022/11/11 03:15:21;;;;;;;9.77;8.90;;;;;;;;;;4986742;28;20030;-74
2022/11/11 03:18:05;;;;;;;10.35;9.20;;;;;;;;;;4994247;28;20384;-74
2022/11/11 03:21:04;;;;;;;8.90;8.20;;;;;;;;;;4995927;28;20073;-74
2022/11/11 03:23:48;;;;;;;17.17;7.65;;;;;;;;;;4986066;28;20040;-75
2022/11/11 03:26:33;;;;;;;12.90;8.00;;;;;;;;;;4995122;28;20034;-73
2022/11/11 03:29:17;;;;;;;10.35;6.88;;;;;;;;;;4990393;28;20045;-74
2022/11/11 03:32:01;;;;;;;54.22;11.00;;;;;;;;;;4984463;28;20038;-74
2022/11/11 03:34:45;;;;;;;38.33;9.90;;;;;;;;;;4994227;28;20037;-72
2022/11/11 03:40:32;;;;;;;18.55;7.95;;;;;;;;;;4979881;28;20047;-72
2022/11/11 03:43:18;;;;;;;45.35;9.93;;;;;;;;;;4987324;28;20074;-73
2022/11/11 03:46:04;;;;;;;133.30;12.90;;;;;;;;;;4994096;28;20031;-72
2022/11/11 03:48:48;;;;;;;73.47;10.45;;;;;;;;;;4989052;28;20685;-72
2022/11/11 03:51:32;;;;;;;58.70;10.77;;;;;;;;;;4982253;28;20540;-72
2022/11/11 03:54:16;;;;;;;59.60;9.77;;;;;;;;;;4987118;28;20673;-74
2022/11/11 04:00:04;;;;;;;94.78;11.32;;;;;;;;;;4988121;28;20034;-74
2022/11/11 04:11:58;;;;;;;73.97;10.95;;;;;;;;;;4994353;28;20034;-73
2022/11/11 04:17:45;;;;;;;76.18;10.57;;;;;;;;;;4988939;28;20043;-74
2022/11/11 04:23:33;;;;;;;41.22;10.10;;;;;;;;;;4994280;28;20670;-73
2022/11/11 04:26:17;;;;;;;386.65;20.25;;;;;;;;;;4990587;28;20564;-73
2022/11/11 04:35:15;;;;;;;149.45;13.77;;;;;;;;;;4990453;28;20379;-74
2022/11/11 04:41:03;;;;;;;114.18;12.00;;;;;;;;;;4997405;28;20038;-74
2022/11/11 04:46:50;;;;;;;33.10;10.50;;;;;;;;;;4990185;28;20101;-74
2022/11/11 04:49:34;;;;;;;12.60;9.77;;;;;;;;;;4991717;28;20057;-74
2022/11/11 04:52:27;;;;;;;11.25;9.43;;;;;;;;;;4997701;28;20041;-72
2022/11/11 04:58:18;;;;;;;16.73;9.52;;;;;;;;;;5000126;28;20042;-74
2022/11/11 05:01:02;;;;;;;37.97;9.68;;;;;;;;;;4991468;28;20026;-72
2022/11/11 05:03:46;;;;;;;24.23;10.10;;;;;;;;;;4986006;28;20044;-74
2022/11/11 05:09:33;;;;;;;35.88;9.52;;;;;;;;;;4992987;28;20117;-71
2022/11/11 05:12:18;;;;;;;32.67;12.23;;;;;;;;;;4988710;28;20049;-72
2022/11/11 05:21:19;;;;;;;102.82;11.20;;;;;;;;;;4980619;28;20077;-69
2022/11/11 05:27:07;;;;;;;35.92;9.82;;;;;;;;;;4969559;28;20046;-70
2022/11/11 05:29:52;;;;;;;32.25;10.35;;;;;;;;;;4977184;28;20035;-68
2022/11/11 05:32:37;;;;;;;49.45;10.77;;;;;;;;;;4974357;28;20033;-69
2022/11/11 05:35:21;;;;;;;12.88;11.10;;;;;;;;;;4967609;28;20085;-70
2022/11/11 05:38:21;;;;;;;24.77;11.55;;;;;;;;;;4974131;28;20053;-69
2022/11/11 05:41:07;;;;;;;24.15;10.45;;;;;;;;;;4978373;28;20469;-70
2022/11/11 05:43:51;;;;;;;12.48;9.57;;;;;;;;;;4968003;28;20512;-69
2022/11/11 05:46:35;;;;;;;26.25;9.32;;;;;;;;;;4975605;28;20510;-70
2022/11/11 05:49:20;;;;;;;10.38;9.38;;;;;;;;;;4980681;28;20069;-67
2022/11/11 05:52:05;;;;;;;17.27;8.88;;;;;;;;;;4969248;28;21156;-69
2022/11/11 05:54:49;;;;;;;11.93;9.93;;;;;;;;;;4973308;28;20180;-68
2022/11/11 05:57:33;;;;;;;9.77;8.98;;;;;;;;;;4977877;28;20066;-69
2022/11/11 06:00:18;;;;;;;10.20;9.30;;;;;;;;;;4961896;28;20049;-69
2022/11/11 06:03:04;;;;;;;9.60;8.73;;;;;;;;;;4971920;28;20035;-70
2022/11/11 06:05:48;;;;;;;18.23;9.38;;;;;;;;;;4970445;28;20035;-70
2022/11/11 06:08:33;;;;;;;9.43;8.73;;;;;;;;;;4969924;28;20042;-70
2022/11/11 06:11:17;;;;;;;16.83;10.43;;;;;;;;;;4968034;28;20073;-70
2022/11/11 06:14:01;;;;;;;11.32;10.23;;;;;;;;;;4978627;28;20081;-70
2022/11/11 06:16:45;;;;;;;12.55;9.80;;;;;;;;;;4970463;28;20035;-69
2022/11/11 06:19:29;;;;;;;14.75;9.35;;;;;;;;;;4970321;28;20503;-69
2022/11/11 06:22:54;;;;;;;11.07;9.10;;;;;;;;;;4978046;28;20664;-69
2022/11/11 06:28:20;;;;;;;50.10;11.23;;;;;;;;;;4971860;28;20045;-69
2022/11/11 06:31:06;;;;;;;29.67;9.82;;;;;;;;;;4971713;28;20022;-69
2022/11/11 06:33:51;;;;;;;57.30;23.70;;;;;;;;;;4971039;28;20150;-69
2022/11/11 06:36:35;;;;;;;81.90;23.40;;;;;;;;;;4975834;28;20045;-70
2022/11/11 06:39:20;;;;;;;79.28;26.52;;;;;;;;;;4974856;28;20529;-69
2022/11/11 06:42:04;;;;;;;43.35;13.90;;;;;;;;;;4969760;28;20433;-68
2022/11/11 06:44:48;;;;;;;140.02;18.25;;;;;;;;;;4968584;28;20081;-69
2022/11/11 06:47:36;;;;;;;155.25;13.50;;;;;;;;;;4977895;28;20037;-69
2022/11/11 06:50:21;;;;;;;174.55;16.80;;;;;;;;;;4970677;28;20037;-69
2022/11/11 06:53:17;;;;;;;67.18;12.13;;;;;;;;;;4973169;28;20560;-70
2022/11/11 06:56:01;;;;;;;71.70;10.68;;;;;;;;;;4977332;28;20045;-70
2022/11/11 06:58:45;;;;;;;51.65;10.98;;;;;;;;;;4969350;28;20122;-68
2022/11/11 07:01:30;;;;;;;38.67;9.57;;;;;;;;;;4973615;28;20089;-70
2022/11/11 07:04:14;;;;;;;69.95;12.73;;;;;;;;;;4975870;28;20150;-70
2022/11/11 07:06:58;;;;;;;41.22;10.82;;;;;;;;;;4969019;28;20112;-70
2022/11/11 07:09:43;;;;;;;29.48;10.10;;;;;;;;;;4965818;28;20037;-70
2022/11/11 07:12:27;;;;;;;34.38;11.68;;;;;;;;;;4963912;28;20536;-69
2022/11/11 07:15:12;;;;;;;41.95;12.65;;;;;;;;;;4966512;28;20577;-70
2022/11/11 07:17:56;;;;;;;47.03;12.00;;;;;;;;;;4975815;28;20126;-68
2022/11/11 07:20:41;;;;;;;25.25;10.98;;;;;;;;;;4968279;28;20405;-70
2022/11/11 07:23:25;;;;;;;43.03;11.35;;;;;;;;;;4968443;28;20197;-70
2022/11/11 07:26:09;;;;;;;22.55;10.93;;;;;;;;;;4979101;28;20161;-70
2022/11/11 07:28:54;;;;;;;33.47;12.27;;;;;;;;;;4971741;28;20122;-70
2022/11/11 07:31:38;;;;;;;28.50;10.55;;;;;;;;;;4969476;28;20061;-71
2022/11/11 07:34:23;;;;;;;43.45;13.15;;;;;;;;;;4976494;28;20030;-70
2022/11/11 07:37:06;;;;;;;33.58;12.93;;;;;;;;;;4969321;28;20038;-69
2022/11/11 07:39:51;;;;;;;59.88;11.48;;;;;;;;;;4966148;28;20513;-70
2022/11/11 07:42:36;;;;;;;83.13;13.43;;;;;;;;;;4975792;28;20094;-67
2022/11/11 07:45:20;;;;;;;31.60;12.48;;;;;;;;;;4977651;28;20038;-71
2022/11/11 07:48:05;;;;;;;231.68;17.42;;;;;;;;;;4972547;28;20085;-69
2022/11/11 07:50:52;;;;;;;85.45;12.00;;;;;;;;;;4981047;28;20057;-70
2022/11/11 07:53:36;;;;;;;49.92;11.77;;;;;;;;;;4984808;28;20027;-70
2022/11/11 07:56:21;;;;;;;174.90;16.20;;;;;;;;;;4973663;28;20768;-70
2022/11/11 07:59:06;;;;;;;86.88;14.40;;;;;;;;;;4972629;28;20652;-70
2022/11/11 08:01:50;;;;;;;92.72;13.15;;;;;;;;;;4982688;28;20045;-69
2022/11/11 08:04:34;;;;;;;187.88;16.30;;;;;;;;;;4968837;28;20064;-69
2022/11/11 08:07:18;;;;;;;119.20;14.88;;;;;;;;;;4973439;28;20045;-69
2022/11/11 08:10:03;;;;;;;151.75;15.68;;;;;;;;;;4976172;28;20058;-70
2022/11/11 08:15:56;;;;;;;44.23;13.17;;;;;;;;;;4973963;28;20030;-70
2022/11/11 08:18:41;;;;;;;54.55;13.77;;;;;;;;;;4977325;28;20286;-68
2022/11/11 08:21:25;;;;;;;58.03;14.35;;;;;;;;;;4972998;28;20093;-71
2022/11/11 08:24:10;;;;;;;45.78;11.75;;;;;;;;;;4972907;28;20042;-70
2022/11/11 08:26:54;;;;;;;30.20;11.27;;;;;;;;;;4984549;28;20042;-69
2022/11/11 08:29:39;;;;;;;18.80;12.30;;;;;;;;;;4979356;28;20034;-71
2022/11/11 08:32:23;;;;;;;37.80;13.43;;;;;;;;;;4972467;28;20045;-68
2022/11/11 08:35:07;;;;;;;73.22;13.88;;;;;;;;;;4983638;28;20046;-70
2022/11/11 08:37:52;;;;;;;133.93;17.27;;;;;;;;;;4972770;28;20034;-68
2022/11/11 08:40:36;;;;;;;54.15;12.07;;;;;;;;;;4977484;28;20030;-71
2022/11/11 08:43:21;;;;;;;94.50;15.00;;;;;;;;;;4977923;28;20035;-69
2022/11/11 08:46:05;;;;;;;356.88;25.58;;;;;;;;;;4970572;28;20031;-71
2022/11/11 08:48:49;;;;;;;309.67;25.80;;;;;;;;;;4987060;28;20070;-71
2022/11/11 08:51:34;;;;;;;239.70;19.25;;;;;;;;;;4980759;28;20089;-68
2022/11/11 08:54:18;;;;;;;276.50;19.30;;;;;;;;;;4968777;28;20086;-70
2022/11/11 08:57:03;;;;;;;137.15;15.00;;;;;;;;;;4982405;28;20031;-69
2022/11/11 08:59:47;;;;;;;332.23;22.58;;;;;;;;;;4981014;28;20054;-69
2022/11/11 09:02:31;;;;;;;329.63;22.17;;;;;;;;;;4970551;28;20038;-70
2022/11/11 09:05:15;;;;;;;279.88;21.33;;;;;;;;;;4979417;28;20506;-69
2022/11/11 09:08:01;;;;;;;148.25;15.68;;;;;;;;;;4977439;28;20042;-70
2022/11/11 09:10:45;;;;;;;258.58;18.75;;;;;;;;;;4969096;28;20521;-70
2022/11/11 09:13:29;;;;;;;185.25;16.00;;;;;;;;;;4972530;28;20038;-69
2022/11/11 09:16:14;;;;;;;270.20;20.10;;;;;;;;;;4980712;28;20084;-69
2022/11/11 09:18:58;;;;;;;122.38;14.45;;;;;;;;;;4977881;28;20058;-70
2022/11/11 09:21:43;;;;;;;324.48;22.25;;;;;;;;;;4970093;28;20038;-71
2022/11/11 09:24:27;;;;;;;152.52;16.63;;;;;;;;;;4975438;28;20513;-69
2022/11/11 09:27:11;;;;;;;58.53;14.70;;;;;;;;;;4978402;28;20169;-70
2022/11/11 09:29:56;;;;;;;31.45;16.65;;;;;;;;;;4978147;28;20398;-70
2022/11/11 09:32:40;;;;;;;16.35;11.93;;;;;;;;;;4967594;28;20105;-70
2022/11/11 09:35:24;;;;;;;11.45;10.45;;;;;;;;;;4977734;28;20034;-69
2022/11/11 09:38:09;;;;;;;14.52;13.05;;;;;;;;;;4971997;28;20038;-71
2022/11/11 09:41:03;;;;;;;19.20;15.43;;;;;;;;;;4973076;28;20100;-71
2022/11/11 09:43:54;;;;;;;13.57;12.13;;;;;;;;;;4977125;28;20035;-70
2022/11/11 09:46:45;;;;;;;14.32;13.07;;;;;;;;;;4976627;28;20034;-70
2022/11/11 09:49:54;;;;;;;13.23;11.95;;;;;;;;;;4965745;28;20430;-69
2022/11/11 09:52:59;;;;;;;12.25;11.05;;;;;;;;;;4975906;28;20043;-69
2022/11/11 09:55:54;;;;;;;12.25;10.98;;;;;;;;;;4971898;28;20035;-70
2022/11/11 09:58:44;;;;;;;16.15;13.27;;;;;;;;;;4967208;28;20027;-69
2022/11/11 10:01:35;;;;;;;15.57;12.40;;;;;;;;;;4971638;28;20089;-71
2022/11/11 10:04:25;;;;;;;12.90;11.48;;;;;;;;;;4981921;28;20097;-71
2022/11/11 10:07:21;;;;;;;12.85;11.65;;;;;;;;;;4969291;28;20077;-70
2022/11/11 10:10:08;;;;;;;13.07;11.80;;;;;;;;;;4975030;28;20509;-70
2022/11/11 10:12:55;;;;;;;11.68;10.77;;;;;;;;;;4987291;23;20042;-72
2022/11/11 10:15:57;;;;;;;12.93;11.82;;;;;;;;;;4995837;28;20412;-72
2022/11/11 10:18:59;;;;;;;11.90;10.90;;;;;;;;;;4996092;28;20234;-71
2022/11/11 10:21:59;;;;;;;13.02;10.77;;;;;;;;;;4987867;28;20565;-70
2022/11/11 10:24:52;;;;;;;12.27;11.18;;;;;;;;;;4972892;28;20037;-71
2022/11/11 10:27:41;;;;;;;18.00;16.45;;;;;;;;;;4973112;28;20089;-72
2022/11/11 10:30:28;;;;;;;12.95;11.77;;;;;;;;;;4977377;28;20027;-72
2022/11/11 10:33:21;;;;;;;13.20;11.98;;;;;;;;;;4971544;28;20046;-71
2022/11/11 10:36:12;;;;;;;18.30;12.55;;;;;;;;;;4980582;28;20049;-72
2022/11/11 10:39:03;;;;;;;24.50;20.98;;;;;;;;;;4970481;28;20126;-72
2022/11/11 10:41:49;;;;;;;12.02;11.02;;;;;;;;;;4973719;28;20145;-72
2022/11/11 10:44:35;;;;;;;12.90;11.80;;;;;;;;;;4975850;28;20043;-72
2022/11/11 10:47:34;;;;;;;12.90;11.63;;;;;;;;;;4975478;28;20081;-72
2022/11/11 10:50:24;;;;;;;;;;;;;;;;;;4971841;28;20041;-72
2022/11/11 10:53:32;;;;;;;12.40;11.23;;;;;;;;;;4974561;28;19914;-72
2022/11/11 10:56:27;;;;;;;11.35;10.15;;;;;;;;;;4973467;28;20123;-71
2022/11/11 10:59:11;;;;;;;12.18;11.18;;;;;;;;;;4973887;28;20038;-73
2022/11/11 11:02:04;;;;;;;10.70;9.85;;;;;;;;;;4975544;28;20049;-72
2022/11/11 11:05:10;;;;;;;16.45;14.70;;;;;;;;;;4972394;28;20089;-72
2022/11/11 11:07:58;;;;;;;13.30;12.15;;;;;;;;;;4974487;28;20162;-72
2022/11/11 11:10:46;;;;;;;;;;;;;;;;;;4976313;28;20181;-73
2022/11/11 11:13:49;;;;;;;11.65;10.55;;;;;;;;;;4970726;28;19918;-72
2022/11/11 11:16:38;;;;;;;10.90;9.93;;;;;;;;;;4977590;28;20509;-71
2022/11/11 11:19:25;;;;;;;11.80;10.63;;;;;;;;;;4976874;28;20140;-73
2022/11/11 11:22:09;;;;;;;16.38;14.65;;;;;;;;;;4973245;28;20038;-72
2022/11/11 11:25:08;;;;;;;14.10;12.18;;;;;;;;;;4973338;28;20069;-72
2022/11/11 11:28:05;;;;;;;17.10;15.05;;;;;;;;;;4976090;28;20035;-72
2022/11/11 11:30:58;;;;;;;13.48;12.23;;;;;;;;;;4968784;28;20062;-72
2022/11/11 11:33:55;;;;;;;16.90;14.15;;;;;;;;;;4982433;28;20045;-72
2022/11/11 11:36:39;;;;;;;13.13;11.88;;;;;;;;;;4972402;28;20043;-72
2022/11/11 11:39:38;;;;;;;11.98;11.07;;;;;;;;;;4972672;28;20034;-72
2022/11/11 11:42:37;;;;;;;11.95;10.98;;;;;;;;;;4976354;28;20325;-72
2022/11/11 11:45:28;;;;;;;11.73;10.82;;;;;;;;;;4972741;28;20457;-71
2022/11/11 11:48:24;;;;;;;12.70;11.20;;;;;;;;;;4973977;28;20049;-73
2022/11/11 11:51:31;;;;;;;11.65;10.65;;;;;;;;;;4971202;28;20034;-73
2022/11/11 11:54:37;;;;;;;11.65;10.50;;;;;;;;;;4972595;28;20417;-73
2022/11/11 11:57:45;;;;;;;10.90;10.00;;;;;;;;;;4972873;28;20690;-72
2022/11/11 12:00:42;;;;;;;11.38;10.38;;;;;;;;;;4977701;28;20501;-72
2022/11/11 12:03:57;;;;;;;11.23;10.25;;;;;;;;;;4966675;28;20554;-73
2022/11/11 12:06:48;;;;;;;15.98;13.20;;;;;;;;;;4970811;28;20043;-72
2022/11/11 12:09:34;;;;;;;12.30;11.10;;;;;;;;;;4967781;28;20600;-72
2022/11/11 12:12:47;;;;;;;11.95;11.00;;;;;;;;;;4969696;28;20038;-73
2022/11/11 12:15:42;;;;;;;11.18;10.32;;;;;;;;;;4972021;28;20109;-72
2022/11/11 12:18:29;;;;;;;11.75;10.70;;;;;;;;;;4976330;28;20038;-73
2022/11/11 12:21:15;;;;;;;11.88;10.88;;;;;;;;;;4975156;28;20049;-72
2022/11/11 12:24:21;;;;;;;11.88;10.73;;;;;;;;;;4975468;28;20125;-72
2022/11/11 12:27:28;;;;;;;11.55;10.38;;;;;;;;;;4971841;28;20030;-74
2022/11/11 12:30:19;;;;;;;12.15;11.15;;;;;;;;;;4974118;28;20045;-72
2022/11/11 12:33:31;;;;;;;11.43;10.63;;;;;;;;;;4975902;28;20817;-73
2022/11/11 12:36:43;;;;;;;11.88;10.60;;;;;;;;;;4976863;28;20032;-73
2022/11/11 12:39:54;;;;;;;11.73;10.65;;;;;;;;;;4974318;28;20378;-72
2022/11/11 12:42:45;;;;;;;12.25;11.15;;;;;;;;;;4978716;28;20061;-73
2022/11/11 12:45:34;;;;;;;11.82;10.65;;;;;;;;;;4969760;28;20528;-73
2022/11/11 12:48:27;;;;;;;10.15;9.35;;;;;;;;;;4981720;28;20061;-73
2022/11/11 12:51:35;;;;;;;9.45;8.65;;;;;;;;;;4975848;28;20035;-74
2022/11/11 12:54:51;;;;;;;10.18;9.27;;;;;;;;;;4970212;28;20046;-73
2022/11/11 12:57:56;;;;;;;10.10;9.40;;;;;;;;;;4981522;28;20065;-72
2022/11/11 13:00:56;;;;;;;10.55;9.57;;;;;;;;;;4976018;28;20514;-74
2022/11/11 13:03:51;;;;;;;10.60;9.68;;;;;;;;;;4972848;28;20034;-73
2022/11/11 13:06:48;;;;;;;10.30;9.40;;;;;;;;;;4976489;28;20117;-73
2022/11/11 13:10:01;;;;;;;10.55;9.68;;;;;;;;;;4976444;28;20043;-73
2022/11/11 13:12:51;;;;;;;11.73;10.65;;;;;;;;;;4961525;28;20050;-74
2022/11/11 13:15:35;;;;;;;10.10;9.30;;;;;;;;;;4978070;28;20049;-73
2022/11/11 13:18:28;;;;;;;10.15;9.45;;;;;;;;;;4976829;28;20545;-73
2022/11/11 13:21:16;;;;;;;10.52;9.52;;;;;;;;;;4970453;28;20761;-73
2022/11/11 13:24:03;;;;;;;9.63;9.02;;;;;;;;;;4976001;28;20053;-73
2022/11/11 13:27:10;;;;;;;12.02;10.88;;;;;;;;;;4980499;28;20458;-73
2022/11/11 13:30:09;;;;;;;10.55;9.70;;;;;;;;;;4961652;28;20499;-73
2022/11/11 13:33:12;;;;;;;11.18;9.65;;;;;;;;;;4975605;28;20034;-74
2022/11/11 13:35:59;;;;;;;10.15;9.35;;;;;;;;;;4972618;28;20170;-73
2022/11/11 13:38:46;;;;;;;11.43;9.70;;;;;;;;;;4969016;28;20042;-73
2022/11/11 13:41:39;;;;;;;10.57;9.60;;;;;;;;;;4974741;28;20045;-73
2022/11/11 13:44:28;;;;;;;10.05;9.25;;;;;;;;;;4976219;28;20774;-73
2022/11/11 13:47:31;;;;;;;9.70;8.70;;;;;;;;;;4978123;28;20121;-73
2022/11/11 13:50:31;;;;;;;9.80;9.10;;;;;;;;;;4974266;28;20046;-73
2022/11/11 13:53:29;;;;;;;10.10;9.20;;;;;;;;;;4970886;28;20031;-73
2022/11/11 13:56:22;;;;;;;10.32;9.20;;;;;;;;;;4974763;28;20482;-72
2022/11/11 13:59:15;;;;;;;10.98;9.98;;;;;;;;;;4973354;28;20161;-72
2022/11/11 14:02:17;;;;;;;12.10;10.65;;;;;;;;;;4973459;28;20074;-72
2022/11/11 14:05:02;;;;;;;11.30;10.05;;;;;;;;;;4969458;28;20198;-72
2022/11/11 14:07:48;;;;;;;10.98;10.00;;;;;;;;;;4978985;28;20104;-72
2022/11/11 14:10:32;;;;;;;11.00;10.10;;;;;;;;;;4970030;28;20315;-72
2022/11/11 14:13:24;;;;;;;11.40;10.10;;;;;;;;;;4969046;28;20057;-73
2022/11/11 14:16:10;;;;;;;11.27;10.27;;;;;;;;;;4977226;28;20038;-74
2022/11/11 14:18:54;;;;;;;10.98;9.98;;;;;;;;;;4973742;28;20039;-73
2022/11/11 14:21:45;;;;;;;10.20;9.40;;;;;;;;;;4974868;28;20085;-72
2022/11/11 14:24:36;;;;;;;11.15;10.15;;;;;;;;;;4979169;28;20049;-73
2022/11/11 14:27:26;;;;;;;10.35;9.65;;;;;;;;;;4970131;28;20136;-73
2022/11/11 14:30:26;;;;;;;10.57;9.68;;;;;;;;;;4970691;28;20165;-73
2022/11/11 14:33:30;;;;;;;12.43;9.88;;;;;;;;;;4976781;28;20034;-73
2022/11/11 14:36:42;;;;;;;13.05;11.75;;;;;;;;;;4969337;28;20117;-71
2022/11/11 14:39:40;;;;;;;14.57;11.43;;;;;;;;;;4976638;28;20130;-72
2022/11/11 14:42:34;;;;;;;10.50;9.60;;;;;;;;;;4980900;28;20038;-72
2022/11/11 14:45:30;;;;;;;11.30;10.20;;;;;;;;;;4971366;28;20604;-73
2022/11/11 14:48:48;;;;;;;11.88;9.77;;;;;;;;;;4977702;28;20035;-72
2022/11/11 14:52:27;;;;;;;10.73;9.82;;;;;;;;;;4972804;28;20058;-72
2022/11/11 14:55:38;;;;;;;11.30;10.30;;;;;;;;;;4956651;28;20130;-72
2022/11/11 14:58:25;;;;;;;11.82;10.77;;;;;;;;;;4958927;28;20040;-72
2022/11/11 15:01:17;;;;;;;11.27;10.30;;;;;;;;;;4955170;28;20045;-73
2022/11/11 15:04:03;;;;;;;11.50;10.48;;;;;;;;;;4950176;28;20347;-73
2022/11/11 15:06:57;;;;;;;11.07;10.27;;;;;;;;;;4958339;28;20087;-73
2022/11/11 15:10:03;;;;;;;11.85;10.88;;;;;;;;;;4957724;28;20057;-72
2022/11/11 15:12:56;;;;;;;14.07;12.75;;;;;;;;;;4958610;28;20074;-72
2022/11/11 15:15:52;;;;;;;13.63;12.32;;;;;;;;;;4955426;28;20422;-72
2022/11/11 15:18:50;;;;;;;13.93;11.45;;;;;;;;;;4959101;28;20055;-72
2022/11/11 15:21:38;;;;;;;12.13;11.13;;;;;;;;;;4956548;28;20425;-73
2022/11/11 15:24:31;;;;;;;12.57;11.55;;;;;;;;;;4960270;28;20058;-73
2022/11/11 15:27:24;;;;;;;12.43;11.43;;;;;;;;;;4977482;28;20298;-72
2022/11/11 15:30:14;;;;;;;16.05;11.27;;;;;;;;;;4972682;28;20061;-72
2022/11/11 15:33:12;;;;;;;13.32;12.02;;;;;;;;;;4971251;28;20508;-72
2022/11/11 15:36:09;;;;;;;14.85;13.32;;;;;;;;;;4974344;28;20085;-72
2022/11/11 15:38:57;;;;;;;14.00;12.80;;;;;;;;;;4975305;28;20516;-72
2022/11/11 15:41:45;;;;;;;15.88;12.57;;;;;;;;;;4966048;28;20030;-72
2022/11/11 15:44:33;;;;;;;13.60;12.00;;;;;;;;;;4969737;28;20038;-72
2022/11/11 15:47:21;;;;;;;11.88;10.80;;;;;;;;;;4970345;28;20116;-73
2022/11/11 15:50:24;;;;;;;15.60;12.00;;;;;;;;;;4967349;28;20038;-72
2022/11/11 15:53:11;;;;;;;13.50;12.38;;;;;;;;;;4986155;28;20054;-72
2022/11/11 15:55:57;;;;;;;14.68;12.88;;;;;;;;;;4973125;28;20477;-72
2022/11/11 15:58:41;;;;;;;15.75;13.88;;;;;;;;;;4970489;28;20079;-72
2022/11/11 16:01:27;;;;;;;15.32;13.77;;;;;;;;;;4969154;28;20429;-72
2022/11/11 16:04:17;;;;;;;15.07;13.65;;;;;;;;;;4973134;28;20097;-72
2022/11/11 16:07:01;;;;;;;13.27;12.10;;;;;;;;;;4966651;28;20041;-71
2022/11/11 16:09:46;;;;;;;14.02;12.27;;;;;;;;;;4973560;28;20092;-71
2022/11/11 16:12:40;;;;;;;13.98;12.57;;;;;;;;;;4972560;28;20082;-72
2022/11/11 16:15:32;;;;;;;13.20;11.85;;;;;;;;;;5013130;23;20077;-72
2022/11/11 16:18:23;;;;;;;13.05;11.73;;;;;;;;;;4994149;28;20085;-70
2022/11/11 16:21:13;;;;;;;11.65;10.57;;;;;;;;;;4997214;28;20042;-70
2022/11/11 16:23:59;;;;;;;12.77;11.32;;;;;;;;;;4995259;28;20467;-72
2022/11/11 16:26:44;;;;;;;12.80;11.70;;;;;;;;;;4996655;28;20114;-72
2022/11/11 16:29:35;;;;;;;13.93;11.05;;;;;;;;;;4994870;28;20591;-70
2022/11/11 16:32:22;;;;;;;13.48;11.32;;;;;;;;;;4991938;28;20165;-70
2022/11/11 16:35:45;;;;;;;12.15;11.05;;;;;;;;;;4990578;28;20405;-70
2022/11/11 16:38:30;;;;;;;12.13;11.02;;;;;;;;;;4974698;28;20120;-69
2022/11/11 16:41:29;;;;;;;12.52;11.52;;;;;;;;;;4978406;28;20709;-69
2022/11/11 16:44:35;;;;;;;15.93;13.68;;;;;;;;;;4969973;28;20142;-69
2022/11/11 16:47:34;;;;;;;17.20;15.38;;;;;;;;;;4978542;28;20460;-70
2022/11/11 16:50:22;;;;;;;20.45;15.68;;;;;;;;;;4965783;28;20061;-69
2022/11/11 16:53:06;;;;;;;69.45;35.10;;;;;;;;;;4978326;28;20048;-69
2022/11/11 16:55:50;;;;;;;49.00;25.05;;;;;;;;;;4979869;28;20069;-69
2022/11/11 16:58:39;;;;;;;47.03;26.33;;;;;;;;;;4980817;28;20165;-69
2022/11/11 17:01:23;;;;;;;60.80;31.38;;;;;;;;;;4977499;28;20240;-72
2022/11/11 17:04:09;;;;;;;55.85;30.05;;;;;;;;;;4975179;28;20050;-69
2022/11/11 17:07:00;;;;;;;36.60;23.00;;;;;;;;;;4973952;28;20050;-69
2022/11/11 17:09:45;;;;;;;33.15;24.67;;;;;;;;;;4989503;28;20050;-70
2022/11/11 17:12:30;;;;;;;31.02;23.35;;;;;;;;;;4987734;28;20056;-70
2022/11/11 17:15:15;;;;;;;18.73;15.77;;;;;;;;;;4992867;28;20044;-70
2022/11/11 17:18:00;;;;;;;78.40;35.58;;;;;;;;;;4988203;28;20041;-70
2022/11/11 17:20:44;;;;;;;266.15;93.35;;;;;;;;;;4987918;28;20485;-70
2022/11/11 17:23:28;;;;;;;27.42;17.92;;;;;;;;;;4993647;28;20142;-70
2022/11/11 17:26:12;;;;;;;22.13;16.02;;;;;;;;;;4992841;28;20045;-70
2022/11/11 17:28:57;;;;;;;16.92;14.75;;;;;;;;;;4987745;28;20068;-71
2022/11/11 17:31:41;;;;;;;15.95;13.40;;;;;;;;;;4995174;28;20503;-70
2022/11/11 17:34:25;;;;;;;19.92;15.30;;;;;;;;;;4994507;28;20037;-70
2022/11/11 17:37:10;;;;;;;12.05;11.05;;;;;;;;;;4986528;28;20050;-71
2022/11/11 17:39:54;;;;;;;11.50;10.50;;;;;;;;;;4995005;28;20100;-71
2022/11/11 17:42:38;;;;;;;13.43;12.02;;;;;;;;;;4994672;28;20493;-71
2022/11/11 17:45:23;;;;;;;13.90;11.32;;;;;;;;;;4985935;28;20668;-71
2022/11/11 17:48:08;;;;;;;13.70;11.60;;;;;;;;;;4994035;28;20128;-71
2022/11/11 17:50:52;;;;;;;13.35;12.00;;;;;;;;;;4994520;28;20540;-71
2022/11/11 17:53:37;;;;;;;26.70;15.77;;;;;;;;;;4986536;28;20068;-71